x

Ilm3 - 27 Miles Se Of Wrightsville Beach, Nc (41037) Weather Station

9:08pm - Fri 24th Nov 2017 All times are EST. -5 hours from GMT.

  • Wind
    22mph, 29mph gusts
  • Sea Temp 71°f
  • Air Temp 60°f
  • Sea Pressure 1012.5mb
  • Ilm3 - 27 Miles Se Of Wrightsville Beach, Nc
  • Ilm3 - 27 Miles Se Of Wrightsville Beach, Nc

More Historic Weather Station data

Upgrade to MSW Pro to gain access to the past 30 days of data for over 8000 Wavebouys and Weather Stations around the globe.

Join

Comparision Forecast

View Surf forecast
   
Fri 11/24 9:08pm 22 29 mph 1012.5mb 71f 60f
8:08pm 25 31 mph 1012.7mb 72f 60f
7:08pm 25 34 mph 1012.8mb 72f 60f
6:08pm 25 31 mph 1012.6mb 72f 60f
5:08pm 25 34 mph 1012.5mb 72f 60f
4:08pm 22 31 mph 1012.4mb 72f 60f
3:08pm 25 31 mph 1012mb 72f 59f
2:08pm 22 34 mph 1012.5mb 72f 58f
1:08pm 22 31 mph 1013mb 72f 57f
12:08pm 22 34 mph 1013.8mb 72f 57f
11:08am 22 34 mph 1014.5mb 72f 57f
10:08am 25 34 mph 1015.4mb 72f 56f
9:08am 25 36 mph 1015.5mb 72f 56f
8:08am 27 36 mph 1015.5mb 72f 57f
7:08am 25 34 mph 1015.3mb 72f 56f
6:08am 25 40 mph 1014.8mb 71f 56f
5:08am 25 34 mph 1015.2mb 71f 56f
4:08am 22 31 mph 1014.8mb 71f 56f
2:08am 20 31 mph 1015.1mb 72f 58f
1:08am 22 31 mph 1014.7mb 72f 58f
12:08am 22 34 mph 1015.4mb 72f 59f
Thu 11/23 11:08pm 20 27 mph 1015.8mb 72f 59f
10:08pm 16 25 mph 1016.4mb 72f 59f
9:08pm 18 27 mph 1016.5mb 71f 58f
8:08pm 20 27 mph 1016.4mb 70f 58f
7:08pm 20 29 mph 1016.8mb 70f 57f
6:08pm 20 27 mph 1017mb 70f 57f
5:08pm 20 29 mph 1016.5mb 70f 56f
4:08pm 18 27 mph 1016.7mb 70f 56f
3:08pm 20 29 mph 1016.6mb 70f 56f
2:08pm 18 25 mph 1016.7mb 70f 56f
1:08pm 18 27 mph 1016.6mb 70f 57f
12:08pm 18 27 mph 1017.5mb 71f 56f
11:08am 18 29 mph 1018.1mb 71f 56f
10:08am 18 27 mph 1019.1mb 70f 56f
9:08am 20 29 mph 1019mb 70f 56f
8:08am 20 29 mph 1019mb 70f 55f
7:08am 20 31 mph 1018.4mb 69f 55f
6:08am 22 34 mph 1018.5mb 69f 56f
5:08am 22 34 mph 1018.5mb 69f 56f
4:08am 25 36 mph 1018.3mb 69f 56f
3:08am 25 34 mph 1018.1mb 69f 57f
2:08am 25 34 mph 1017.8mb 69f 58f
1:08am 22 31 mph 1017.9mb 69f 60f
12:08am 18 27 mph 1017.8mb 69f 62f
Wed 11/22 11:08pm 16 25 mph 1017.8mb 69f 63f
10:08pm 20 29 mph 1017.6mb 69f 63f
9:08pm 22 29 mph 1017.1mb 69f 64f
8:08pm 22 29 mph 1016.9mb 69f 64f
7:08pm 20 27 mph 1016.4mb 68f 65f
6:08pm 16 22 mph 1015.8mb 68f 66f
5:08pm 16 20 mph 1014.8mb 68f 67f
4:08pm 11 20 mph 1014.2mb 68f 67f
3:08pm 13 18 mph 1013.5mb 68f 67f
2:08pm 11 18 mph 1013.3mb 68f 66f
1:08pm 13 20 mph 1013mb 68f 65f
12:08pm 18 27 mph 1013.8mb 68f 64f
11:08am 16 25 mph 1014.6mb 68f 63f
10:08am 13 20 mph 1014.4mb 68f 64f
9:08am 13 20 mph 1014mb 68f 65f
8:08am 9 13 mph 1013.5mb 68f 65f
7:08am 13 20 mph 1012.5mb 68f 65f
6:08am 11 16 mph 1012.3mb 68f 65f
5:08am 7 13 mph 1011.8mb 68f 65f
4:08am 7 11 mph 1012.9mb 68f 65f
3:08am 11 16 mph 1013.5mb 68f 65f
12:08am 9 16 mph 1014.6mb 68f 64f
Tue 11/21 11:08pm 4 11 mph 1014.9mb 68f 71f
10:08pm 9 16 mph 1016.1mb 68f 71f
9:08pm 11 18 mph 1016.4mb 68f 71f
8:08pm 16 25 mph 1017.2mb 68f 71f
7:08pm 13 20 mph 1018mb 68f 71f
6:08pm 16 22 mph 1018.4mb 68f 71f
5:08pm 13 20 mph 1018.7mb 68f 71f
4:08pm 13 22 mph 1019.1mb 68f 71f
3:08pm 13 22 mph 1018.8mb 68f 70f
2:08pm 11 18 mph 1019.1mb 68f 70f
1:08pm 13 22 mph 1019.9mb 68f 70f
12:08pm 9 16 mph 1021.1mb 68f 70f
11:08am 9 16 mph 1022.4mb 68f 70f
10:08am 9 18 mph 1022.9mb 68f 68f
9:08am 11 18 mph 1022.8mb 68f 65f
8:08am 13 20 mph 1023.1mb 68f 63f
7:08am 13 20 mph 1023.1mb 68f 63f
6:08am 13 18 mph 1022.9mb 68f 63f
5:08am 11 16 mph 1022.8mb 68f 63f
4:08am 7 11 mph 1022.8mb 68f 63f